createdAt,value
2022-11-22T00:00:20.173Z,70.09
2022-11-22T00:02:46.650Z,69.37
2022-11-22T00:05:13.796Z,71.01
2022-11-22T00:07:40.293Z,70.75
2022-11-22T00:10:08.284Z,70.79
2022-11-22T00:12:34.638Z,70.15
2022-11-22T00:15:01.061Z,69.45
2022-11-22T00:17:27.605Z,69.57
2022-11-22T00:19:53.911Z,69.81
2022-11-22T00:22:20.230Z,69.73
2022-11-22T00:24:46.894Z,70.25
2022-11-22T00:27:13.264Z,70.46
2022-11-22T00:29:39.568Z,70.45
2022-11-22T00:32:05.880Z,69.47
2022-11-22T00:34:32.190Z,70.39
2022-11-22T00:36:58.543Z,70.44
2022-11-22T00:39:24.852Z,69.01
2022-11-22T00:41:51.176Z,69.55
2022-11-22T00:44:17.555Z,70.56
2022-11-22T00:46:43.866Z,69.99
2022-11-22T00:49:10.181Z,70.89
2022-11-22T00:51:36.486Z,70.11
2022-11-22T00:54:02.794Z,69.26
2022-11-22T00:56:29.395Z,70.97
2022-11-22T00:58:55.682Z,69.64
2022-11-22T01:01:22.030Z,71.15
2022-11-22T01:03:48.460Z,69.21
2022-11-22T01:06:14.793Z,70.18
2022-11-22T01:08:41.183Z,69.97
2022-11-22T01:11:07.567Z,70.22
2022-11-22T01:13:34.253Z,70.66
2022-11-22T01:16:02.128Z,70.27
2022-11-22T01:18:28.722Z,70.55
2022-11-22T01:20:55.261Z,70.78
2022-11-22T01:23:21.648Z,70.42
2022-11-22T01:25:48.049Z,71.06
2022-11-22T01:28:14.448Z,70.64
2022-11-22T01:30:41.653Z,69.71
2022-11-22T01:33:08.953Z,69.04
2022-11-22T01:35:35.391Z,69.07
2022-11-22T01:38:01.863Z,69.35
2022-11-22T01:40:28.435Z,70.15
2022-11-22T01:42:57.212Z,69.67
2022-11-22T01:45:29.525Z,69.98
2022-11-22T01:48:01.191Z,69.27
2022-11-22T01:50:30.529Z,70.31
2022-11-22T01:53:02.845Z,70.47
2022-11-22T01:55:30.233Z,69.76
2022-11-22T01:57:57.911Z,69.60
2022-11-22T02:00:24.385Z,70.05
2022-11-22T02:02:53.756Z,70.03
2022-11-22T02:05:24.027Z,70.57
2022-11-22T02:08:09.256Z,69.76
2022-11-22T02:10:41.883Z,69.97
2022-11-22T02:13:10.163Z,69.82
2022-11-22T02:15:36.575Z,70.85
2022-11-22T02:18:03.357Z,69.63
2022-11-22T02:20:29.780Z,70.22
2022-11-22T02:23:03.735Z,71.29
2022-11-22T02:25:37.133Z,69.67
2022-11-22T02:28:04.748Z,70.33
2022-11-22T02:30:31.313Z,70.34
2022-11-22T02:32:57.753Z,69.51
2022-11-22T02:35:26.963Z,70.27
2022-11-22T02:38:02.891Z,70.94
2022-11-22T02:40:34.362Z,69.77
2022-11-22T02:43:06.169Z,69.94
2022-11-22T02:45:32.460Z,70.31
2022-11-22T02:48:16.989Z,70.78
2022-11-22T02:50:43.732Z,70.29
2022-11-22T02:53:11.781Z,70.47
2022-11-22T02:55:38.644Z,70.77
2022-11-22T02:58:06.031Z,71.21
2022-11-22T03:00:37.956Z,71.26
2022-11-22T03:03:04.771Z,70.86
2022-11-22T03:05:31.572Z,70.40
2022-11-22T03:07:57.960Z,70.39
2022-11-22T03:10:24.756Z,70.54
2022-11-22T03:12:51.861Z,70.56
2022-11-22T03:15:18.409Z,70.55
2022-11-22T03:17:44.771Z,70.11
2022-11-22T03:20:11.408Z,70.44
2022-11-22T03:22:37.870Z,70.68
2022-11-22T03:25:04.740Z,70.28
2022-11-22T03:27:31.377Z,71.45
2022-11-22T03:29:57.849Z,70.36
2022-11-22T03:32:24.415Z,71.06
2022-11-22T03:34:50.848Z,71.68
2022-11-22T03:37:17.284Z,70.92
2022-11-22T03:39:43.732Z,71.59
2022-11-22T03:42:10.108Z,71.60
2022-11-22T03:44:36.495Z,70.42
2022-11-22T03:47:02.886Z,71.58
2022-11-22T03:49:29.532Z,70.88
2022-11-22T03:51:56.198Z,70.75
2022-11-22T03:54:22.617Z,71.53
2022-11-22T03:56:48.991Z,71.08
2022-11-22T03:59:15.360Z,70.82
2022-11-22T04:01:41.801Z,70.54
2022-11-22T04:04:08.217Z,70.61
2022-11-22T04:06:34.633Z,71.08
2022-11-22T04:09:01.157Z,71.10
2022-11-22T04:11:27.601Z,70.77
2022-11-22T04:14:12.615Z,71.04
2022-11-22T04:16:39.035Z,71.11
2022-11-22T04:19:05.475Z,71.64
2022-11-22T04:21:34.505Z,71.13
2022-11-22T04:24:30.052Z,70.92
2022-11-22T04:26:57.393Z,71.79
2022-11-22T04:29:24.307Z,71.68
2022-11-22T04:32:10.385Z,70.70
2022-11-22T04:34:37.488Z,71.74
2022-11-22T04:37:04.724Z,70.58
2022-11-22T04:39:31.490Z,71.20
2022-11-22T04:42:16.552Z,71.88
2022-11-22T04:44:44.136Z,70.49
2022-11-22T04:47:12.889Z,71.22
2022-11-22T04:49:39.289Z,71.09
2022-11-22T04:52:24.885Z,70.00
2022-11-22T04:54:51.310Z,70.76
2022-11-22T04:57:17.668Z,70.69
2022-11-22T04:59:44.065Z,70.74
2022-11-22T05:02:10.492Z,70.97
2022-11-22T05:04:36.876Z,70.70
2022-11-22T05:07:03.404Z,71.64
2022-11-22T05:09:30.057Z,71.21
2022-11-22T05:11:56.691Z,71.17
2022-11-22T05:14:23.116Z,71.36
2022-11-22T05:16:49.505Z,71.37
2022-11-22T05:19:15.883Z,72.11
2022-11-22T05:21:42.267Z,71.92
2022-11-22T05:24:08.937Z,71.65
2022-11-22T05:26:36.777Z,71.94
2022-11-22T05:29:08.614Z,70.99
2022-11-22T05:31:36.552Z,70.66
2022-11-22T05:34:03.692Z,71.50
2022-11-22T05:36:32.887Z,71.33
2022-11-22T05:38:59.600Z,71.24
2022-11-22T05:41:26.239Z,71.30
2022-11-22T05:43:55.654Z,71.56
2022-11-22T05:46:26.103Z,71.04
2022-11-22T05:48:54.548Z,72.45
2022-11-22T05:51:23.593Z,71.48
2022-11-22T05:53:50.016Z,71.52
2022-11-22T05:56:21.348Z,72.20
2022-11-22T05:58:47.858Z,71.86
2022-11-22T06:01:23.261Z,72.79
2022-11-22T06:03:50.561Z,72.44
2022-11-22T06:06:17.291Z,72.01
2022-11-22T06:08:46.777Z,71.58
2022-11-22T06:11:17.347Z,72.30
2022-11-22T06:13:45.732Z,73.20
2022-11-22T06:16:12.800Z,71.92
2022-11-22T06:18:39.413Z,73.11
2022-11-22T06:21:08.500Z,72.38
2022-11-22T06:23:34.972Z,71.92
2022-11-22T06:26:05.272Z,73.32
2022-11-22T06:28:33.637Z,72.10
2022-11-22T06:31:19.875Z,72.33
2022-11-22T06:33:46.408Z,72.23
2022-11-22T06:36:21.197Z,72.68
2022-11-22T06:38:48.297Z,72.04
2022-11-22T06:41:20.318Z,72.60
2022-11-22T06:43:49.658Z,72.52
2022-11-22T06:46:18.022Z,72.70
2022-11-22T06:48:44.640Z,73.06
2022-11-22T06:51:17.195Z,72.59
2022-11-22T06:53:48.454Z,72.23
2022-11-22T06:56:20.939Z,72.68
2022-11-22T06:58:48.841Z,73.14
2022-11-22T07:01:23.609Z,72.74
2022-11-22T07:03:51.325Z,72.94
2022-11-22T07:06:19.352Z,72.06
2022-11-22T07:08:46.731Z,73.01
2022-11-22T07:11:15.793Z,72.78
2022-11-22T07:13:42.694Z,73.49
2022-11-22T07:16:12.159Z,72.70
2022-11-22T07:18:39.184Z,72.69
2022-11-22T07:21:14.231Z,72.36
2022-11-22T07:23:43.080Z,72.28
2022-11-22T07:26:13.351Z,72.51
2022-11-22T07:28:40.249Z,72.62
2022-11-22T07:31:08.576Z,72.81
2022-11-22T07:33:35.512Z,73.30
2022-11-22T07:36:07.148Z,72.54
2022-11-22T07:38:34.327Z,72.07
2022-11-22T07:41:01.167Z,72.30
2022-11-22T07:43:28.451Z,73.55
2022-11-22T07:45:59.120Z,73.12
2022-11-22T07:48:25.561Z,73.02
2022-11-22T07:50:52.031Z,72.21
2022-11-22T07:53:18.441Z,73.85
2022-11-22T07:55:44.916Z,73.05
2022-11-22T07:58:11.485Z,73.03
2022-11-22T08:00:38.105Z,73.12
2022-11-22T08:03:07.541Z,72.79
2022-11-22T08:05:34.074Z,73.26
2022-11-22T08:08:00.489Z,72.27
2022-11-22T08:10:26.882Z,72.21
2022-11-22T08:12:53.291Z,72.40
2022-11-22T08:15:19.700Z,72.76
2022-11-22T08:17:46.067Z,72.19
2022-11-22T08:20:13.214Z,73.12
2022-11-22T08:22:40.865Z,72.56
2022-11-22T08:25:12.437Z,72.70
2022-11-22T08:27:43.195Z,73.44
2022-11-22T08:30:11.145Z,72.31
2022-11-22T08:32:38.275Z,72.69
2022-11-22T08:35:05.173Z,73.25
2022-11-22T08:37:31.689Z,72.90
2022-11-22T08:39:58.080Z,71.86
2022-11-22T08:42:24.501Z,72.30
2022-11-22T08:44:50.945Z,73.31
2022-11-22T08:47:17.645Z,72.43
2022-11-22T08:49:44.213Z,73.37
2022-11-22T08:52:10.672Z,72.41
2022-11-22T08:54:38.119Z,71.78
2022-11-22T08:57:05.161Z,72.66
2022-11-22T08:59:31.858Z,72.97
2022-11-22T09:01:58.524Z,73.59
2022-11-22T09:04:25.013Z,73.80
2022-11-22T09:09:38.316Z,71.91
2022-11-22T09:12:05.301Z,72.83
2022-11-22T09:14:31.786Z,72.12
2022-11-22T09:16:58.270Z,72.29
2022-11-22T09:19:25.417Z,72.44
2022-11-22T09:21:51.808Z,72.85
2022-11-22T09:24:18.259Z,72.75
2022-11-22T09:26:44.699Z,71.91
2022-11-22T09:29:11.136Z,71.44
2022-11-22T09:31:37.664Z,72.02
2022-11-22T09:34:04.136Z,72.04
2022-11-22T09:36:30.972Z,71.19
2022-11-22T09:38:57.630Z,71.72
2022-11-22T09:41:26.783Z,72.41
2022-11-22T09:44:24.077Z,71.82
2022-11-22T09:46:50.436Z,72.04
2022-11-22T09:49:28.075Z,71.51
2022-11-22T09:52:05.405Z,71.93
2022-11-22T09:54:59.558Z,72.47
2022-11-22T09:57:32.726Z,72.33
2022-11-22T10:00:06.578Z,71.58
2022-11-22T10:03:00.233Z,72.74
2022-11-22T10:05:33.580Z,71.64
2022-11-22T10:08:13.029Z,72.80
2022-11-22T10:10:42.856Z,72.30
2022-11-22T10:13:15.296Z,72.68
2022-11-22T10:15:49.548Z,72.71
2022-11-22T10:18:48.238Z,73.16
2022-11-22T10:21:15.093Z,72.02
2022-11-22T10:23:43.033Z,71.95
2022-11-22T10:26:26.177Z,72.23
2022-11-22T10:29:14.212Z,71.44
2022-11-22T10:31:43.676Z,72.08
2022-11-22T10:34:28.680Z,73.41
2022-11-22T10:36:58.808Z,71.54
2022-11-22T10:39:49.711Z,72.79
2022-11-22T10:42:25.621Z,72.73
2022-11-22T10:44:55.080Z,72.07
2022-11-22T10:47:41.628Z,72.57
2022-11-22T10:50:52.252Z,71.91
2022-11-22T10:53:42.933Z,73.37
2022-11-22T10:57:08.026Z,72.85
2022-11-22T11:00:02.877Z,73.89
2022-11-22T11:02:47.825Z,72.28
2022-11-22T11:05:20.088Z,74.17
2022-11-22T11:07:56.569Z,73.51
2022-11-22T11:10:35.230Z,72.78
2022-11-22T11:13:15.112Z,73.71
2022-11-22T11:15:52.817Z,72.80
2022-11-22T11:18:32.661Z,73.72
2022-11-22T11:20:59.093Z,74.28
2022-11-22T11:23:25.504Z,73.51
2022-11-22T11:25:52.408Z,73.89
2022-11-22T11:28:20.577Z,74.96
2022-11-22T11:30:58.313Z,74.23
2022-11-22T11:33:33.467Z,74.88
2022-11-22T11:36:16.867Z,74.98
2022-11-22T11:38:43.220Z,74.23
2022-11-22T11:41:42.064Z,73.77
2022-11-22T11:44:36.018Z,74.54
2022-11-22T11:47:05.591Z,74.13
2022-11-22T11:49:34.382Z,74.76
2022-11-22T11:52:08.109Z,73.97
2022-11-22T11:54:43.948Z,75.17
2022-11-22T11:57:35.033Z,74.88
2022-11-22T12:00:04.741Z,75.38
2022-11-22T12:02:42.723Z,74.69
2022-11-22T12:05:15.082Z,75.00
2022-11-22T12:07:44.682Z,75.18
2022-11-22T12:10:30.052Z,74.54
2022-11-22T12:13:27.469Z,76.35
2022-11-22T12:15:59.904Z,76.11
2022-11-22T12:18:40.454Z,75.49
2022-11-22T12:21:19.332Z,75.71
2022-11-22T12:24:26.901Z,75.39
2022-11-22T12:26:50.324Z,75.83
2022-11-22T12:29:16.795Z,74.90
2022-11-22T12:32:27.534Z,74.05
2022-11-22T12:34:59.711Z,75.40
2022-11-22T12:37:40.761Z,74.68
2022-11-22T12:40:17.121Z,75.68
2022-11-22T12:42:55.966Z,75.49
2022-11-22T12:45:31.042Z,74.42
2022-11-22T12:48:00.785Z,75.61
2022-11-22T12:50:37.564Z,74.44
2022-11-22T12:53:17.505Z,74.50
2022-11-22T12:55:59.128Z,75.38
2022-11-22T12:58:51.737Z,75.02
2022-11-22T13:01:38.987Z,75.37
2022-11-22T13:04:16.009Z,75.11
2022-11-22T13:06:50.288Z,75.30
2022-11-22T13:09:24.424Z,75.71
2022-11-22T13:12:10.277Z,76.24
2022-11-22T13:14:42.600Z,75.68
2022-11-22T13:17:11.061Z,75.45
2022-11-22T13:19:49.112Z,74.63
2022-11-22T13:22:29.481Z,75.41
2022-11-22T13:25:05.242Z,75.09
2022-11-22T13:27:36.280Z,75.39
2022-11-22T13:30:03.719Z,75.96
2022-11-22T13:32:32.587Z,75.63
2022-11-22T13:35:11.512Z,75.21
2022-11-22T13:37:42.505Z,75.93
2022-11-22T13:40:29.932Z,75.09
2022-11-22T13:43:19.589Z,75.33
2022-11-22T13:45:52.041Z,75.93
2022-11-22T13:48:40.229Z,76.32
2022-11-22T13:51:11.821Z,75.46
2022-11-22T13:53:47.851Z,76.11
2022-11-22T13:56:16.962Z,75.08
2022-11-22T13:59:13.677Z,74.90
2022-11-22T14:01:40.156Z,76.46
2022-11-22T14:04:15.808Z,75.42
2022-11-22T14:07:21.577Z,74.99
2022-11-22T14:09:50.750Z,76.23
2022-11-22T14:12:30.301Z,76.18
2022-11-22T14:15:15.128Z,75.08
2022-11-22T14:18:06.042Z,75.41
2022-11-22T14:21:10.269Z,74.87
2022-11-22T14:23:39.674Z,76.49
2022-11-22T14:26:19.385Z,75.55
2022-11-22T14:29:04.134Z,75.76
2022-11-22T14:31:34.225Z,76.27
2022-11-22T14:34:19.159Z,75.55
2022-11-22T14:37:06.449Z,76.77
2022-11-22T14:39:45.167Z,75.20
2022-11-22T14:42:40.984Z,74.98
2022-11-22T14:45:10.515Z,74.90
2022-11-22T14:47:40.599Z,75.89
2022-11-22T14:50:18.630Z,75.81
2022-11-22T14:52:47.917Z,76.28
2022-11-22T14:55:18.935Z,75.47
2022-11-22T14:57:48.684Z,75.87
2022-11-22T15:00:15.297Z,76.15
2022-11-22T15:03:23.810Z,75.11
2022-11-22T15:09:12.287Z,76.51
2022-11-22T15:09:23.226Z,75.52
2022-11-22T15:11:53.495Z,77.04
2022-11-22T15:14:47.391Z,75.84
2022-11-22T15:57:32.213Z,77.91
2022-11-22T15:59:58.860Z,77.87
2022-11-22T16:02:29.887Z,75.87
2022-11-22T16:06:09.702Z,77.89
2022-11-22T16:07:49.046Z,78.22
2022-11-22T16:10:32.960Z,77.35
2022-11-22T16:13:19.800Z,77.30
2022-11-22T16:16:06.341Z,77.24
2022-11-22T16:18:32.972Z,76.90
2022-11-22T16:21:11.502Z,77.29
2022-11-22T16:23:39.715Z,77.37
2022-11-22T16:26:19.084Z,78.08
2022-11-22T16:28:54.720Z,77.06
2022-11-22T16:31:24.013Z,76.42
2022-11-22T16:33:51.734Z,77.06
2022-11-22T16:36:20.086Z,77.77
2022-11-22T16:38:46.989Z,77.62
2022-11-22T16:41:22.122Z,77.13
2022-11-22T16:43:51.996Z,76.91
2022-11-22T16:46:19.140Z,76.85
2022-11-22T16:48:45.871Z,78.01
2022-11-22T16:51:15.132Z,76.71
2022-11-22T16:53:46.997Z,77.74
2022-11-22T16:56:24.647Z,78.02
2022-11-22T16:58:52.681Z,77.19
2022-11-22T17:01:21.839Z,77.13
2022-11-22T17:03:52.004Z,77.28
2022-11-22T17:06:24.269Z,76.77
2022-11-22T17:08:52.942Z,76.77
2022-11-22T17:11:21.657Z,77.86
2022-11-22T17:13:48.217Z,78.12
2022-11-22T17:16:17.780Z,77.07
2022-11-22T17:18:45.766Z,77.75
2022-11-22T17:21:24.066Z,77.04
2022-11-22T17:23:51.251Z,78.11
2022-11-22T17:26:17.716Z,77.43
2022-11-22T17:28:44.852Z,77.27
2022-11-22T17:31:16.902Z,78.55
2022-11-22T17:33:43.583Z,78.02
2022-11-22T17:36:39.013Z,78.36
2022-11-22T17:39:08.124Z,77.73
2022-11-22T17:41:35.297Z,77.87
2022-11-22T17:44:02.492Z,78.06
2022-11-22T17:46:30.521Z,78.30
2022-11-22T17:48:59.561Z,76.54
2022-11-22T17:51:27.747Z,77.39
2022-11-22T17:53:54.809Z,77.44
2022-11-22T17:56:21.540Z,77.86
2022-11-22T17:58:48.708Z,78.08
2022-11-22T18:01:18.104Z,78.14
2022-11-22T18:03:46.111Z,78.14
2022-11-22T18:06:14.077Z,76.52
2022-11-22T18:08:46.410Z,78.43
2022-11-22T18:11:13.863Z,78.01
2022-11-22T18:13:40.356Z,77.98
2022-11-22T18:16:12.065Z,76.79
2022-11-22T18:21:26.564Z,77.82
2022-11-22T18:23:53.252Z,76.69
2022-11-22T18:31:54.172Z,78.28
2022-11-22T18:34:24.749Z,77.08
2022-11-22T18:37:07.524Z,77.46
2022-11-22T18:39:37.798Z,77.90
2022-11-22T18:42:12.771Z,77.52
2022-11-22T18:44:39.670Z,77.81
2022-11-22T18:47:06.384Z,77.75
2022-11-22T18:49:33.282Z,77.81
2022-11-22T18:52:00.422Z,77.64
2022-11-22T18:54:26.930Z,77.19
2022-11-22T18:56:53.341Z,77.29
2022-11-22T18:59:19.990Z,77.09
2022-11-22T19:01:46.616Z,77.15
2022-11-22T19:04:16.667Z,77.78
2022-11-22T19:06:44.407Z,76.40
2022-11-22T19:09:11.328Z,77.13
2022-11-22T19:11:38.125Z,77.96
2022-11-22T19:14:05.143Z,76.45
2022-11-22T19:16:31.753Z,77.71
2022-11-22T19:18:59.552Z,76.55
2022-11-22T19:21:28.194Z,77.00
2022-11-22T19:23:56.412Z,76.47
2022-11-22T19:26:25.622Z,76.76
2022-11-22T19:28:56.440Z,77.14
2022-11-22T19:31:28.897Z,76.67
2022-11-22T19:33:55.879Z,76.70
2022-11-22T19:36:31.865Z,77.49
2022-11-22T19:38:59.349Z,76.34
2022-11-22T19:41:26.062Z,77.78
2022-11-22T19:43:52.578Z,76.32
2022-11-22T19:46:22.471Z,77.64
2022-11-22T19:48:52.972Z,76.93
2022-11-22T19:51:20.164Z,77.26
2022-11-22T19:53:46.696Z,77.27
2022-11-22T19:56:15.874Z,77.20
2022-11-22T19:58:43.500Z,77.31
2022-11-22T20:01:13.056Z,76.01
2022-11-22T20:03:41.425Z,76.94
2022-11-22T20:06:09.959Z,76.80
2022-11-22T20:08:37.396Z,77.92
2022-11-22T20:11:06.176Z,76.78
2022-11-22T20:13:37.951Z,76.89
2022-11-22T20:16:08.619Z,77.44
2022-11-22T20:18:35.109Z,77.53
2022-11-22T20:21:02.566Z,76.66
2022-11-22T20:23:30.322Z,76.67
2022-11-22T20:26:11.394Z,76.84
2022-11-22T20:28:39.248Z,76.79
2022-11-22T20:31:24.290Z,76.34
2022-11-22T20:33:52.770Z,76.89
2022-11-22T20:36:22.175Z,77.64
2022-11-22T20:38:49.822Z,76.15
2022-11-22T20:41:18.283Z,77.11
2022-11-22T20:43:45.273Z,77.37
2022-11-22T20:46:14.689Z,77.79
2022-11-22T20:48:42.743Z,76.81
2022-11-22T20:51:12.442Z,76.48
2022-11-22T20:53:39.170Z,77.34
2022-11-22T20:56:05.992Z,77.03
2022-11-22T20:58:32.777Z,76.36
2022-11-22T21:01:04.250Z,77.69
2022-11-22T21:03:30.674Z,76.50
2022-11-22T21:05:57.224Z,77.40
2022-11-22T21:08:23.724Z,77.25
2022-11-22T21:10:50.101Z,77.83
2022-11-22T21:13:16.972Z,77.54
2022-11-22T21:15:43.710Z,77.29
2022-11-22T21:18:25.176Z,77.48
2022-11-22T21:20:52.336Z,77.23
2022-11-22T21:23:18.821Z,76.73
2022-11-22T21:25:46.546Z,78.13
2022-11-22T21:28:13.006Z,77.45
2022-11-22T21:30:39.475Z,78.04
2022-11-22T21:33:05.969Z,78.37
2022-11-22T21:35:32.397Z,77.25
2022-11-22T21:37:58.805Z,77.01
2022-11-22T21:40:25.185Z,77.41
2022-11-22T21:42:51.663Z,77.90
2022-11-22T21:45:18.081Z,76.88
2022-11-22T21:47:47.237Z,77.11
2022-11-22T21:50:15.217Z,77.97
2022-11-22T21:52:42.247Z,77.32
2022-11-22T21:55:09.598Z,78.34
2022-11-22T21:57:36.010Z,77.39
2022-11-22T22:00:03.838Z,77.14
2022-11-22T22:02:32.841Z,77.08
2022-11-22T22:04:59.349Z,76.95
2022-11-22T22:07:50.660Z,77.71
2022-11-22T22:10:13.488Z,77.35
2022-11-22T22:12:40.784Z,78.40
2022-11-22T22:15:12.531Z,77.24
2022-11-22T22:17:39.238Z,77.22
2022-11-22T22:20:06.441Z,78.38
2022-11-22T22:22:36.768Z,77.96
2022-11-22T22:25:05.060Z,77.75
2022-11-22T22:27:32.939Z,77.78
2022-11-22T22:29:59.721Z,77.43
2022-11-22T22:32:27.476Z,77.17
2022-11-22T22:34:54.444Z,78.57
2022-11-22T22:37:20.910Z,76.76
2022-11-22T22:39:47.344Z,77.63
2022-11-22T22:42:14.159Z,77.60
2022-11-22T22:44:40.577Z,78.03
2022-11-22T22:47:07.083Z,77.24
2022-11-22T22:49:33.928Z,77.01
2022-11-22T22:52:00.452Z,77.68
2022-11-22T22:54:26.874Z,77.52
2022-11-22T22:56:53.245Z,78.30
2022-11-22T22:59:19.681Z,78.42
2022-11-22T23:01:46.220Z,76.50
2022-11-22T23:04:12.663Z,76.75
2022-11-22T23:06:39.754Z,78.58
2022-11-22T23:09:09.445Z,77.84
2022-11-22T23:11:55.427Z,77.20
2022-11-22T23:14:24.885Z,77.63
2022-11-22T23:16:57.035Z,77.79
2022-11-22T23:19:24.804Z,76.97
2022-11-22T23:21:51.756Z,78.09
2022-11-22T23:24:18.264Z,77.02
2022-11-22T23:26:44.717Z,77.25
2022-11-22T23:29:11.289Z,78.23
2022-11-22T23:31:37.820Z,77.22
2022-11-22T23:34:04.472Z,77.34
2022-11-22T23:36:32.925Z,77.20
2022-11-22T23:39:02.774Z,76.63
2022-11-22T23:41:30.044Z,77.84
2022-11-22T23:43:57.147Z,77.80
2022-11-22T23:46:27.276Z,78.06
2022-11-22T23:48:56.028Z,77.33
2022-11-22T23:51:23.164Z,77.50
2022-11-22T23:53:54.304Z,78.05
2022-11-22T23:56:22.081Z,77.80
2022-11-22T23:58:49.171Z,78.15
